Time;durP1;ratioP1;P1;durP2;ratioP2;P2;SDS_P1;SDS_P2;PMS_P1;PMS_P2;Temp;Humidity;BMP_temperature;BMP_pressure;BME280_temperature;BME280_humidity;BME280_pressure;Samples;Min_cycle;Max_cycle;Signal;HPM_P1;HPM_P2
2022/11/14 00:02:15;;;;;;;8.93;5.10;;;;;;;23.22;26.38;99249.06;6216917;23;19912;-80
2022/11/14 00:04:45;;;;;;;8.82;5.25;;;;;;;23.53;26.26;99253.88;6214588;23;19920;-80
2022/11/14 00:07:11;;;;;;;9.82;5.90;;;;;;;24.07;24.96;99255.38;6215716;23;19908;-80
2022/11/14 00:09:39;;;;;;;8.40;5.60;;;;;;;24.43;24.61;99239.22;6216544;23;19908;-80
2022/11/14 00:12:05;;;;;;;10.30;6.28;;;;;;;21.26;28.99;99248.59;6216393;23;19908;-80
2022/11/14 00:14:31;;;;;;;7.40;4.68;;;;;;;20.81;30.17;99246.16;6216480;23;20348;-80
2022/11/14 00:16:57;;;;;;;9.80;6.40;;;;;;;22.37;27.61;99246.06;6216503;23;19920;-80
2022/11/14 00:19:23;;;;;;;9.45;5.32;;;;;;;23.30;26.16;99251.47;6216177;23;19907;-80
2022/11/14 00:21:51;;;;;;;8.05;4.90;;;;;;;24.47;24.54;99237.19;6189268;23;19914;-80
2022/11/14 00:24:18;;;;;;;7.38;5.10;;;;;;;25.16;23.43;99239.94;6216467;23;20011;-80
2022/11/14 00:26:44;;;;;;;8.13;5.10;;;;;;;24.81;24.04;99235.38;6216403;23;20388;-80
2022/11/14 00:29:11;;;;;;;8.10;5.15;;;;;;;25.36;23.11;99241.00;6216202;23;19907;-80
2022/11/14 00:31:37;;;;;;;6.38;4.22;;;;;;;25.68;22.65;99243.53;6216322;23;20002;-80
2022/11/14 00:34:04;;;;;;;7.45;4.72;;;;;;;25.97;22.23;99247.66;6215765;23;19916;-80
2022/11/14 00:36:31;;;;;;;7.22;4.05;;;;;;;26.21;22.13;99240.19;6216149;23;19908;-80
2022/11/14 00:38:57;;;;;;;6.88;3.92;;;;;;;26.15;21.85;99244.66;6215904;23;19989;-80
2022/11/14 00:41:23;;;;;;;6.65;4.25;;;;;;;26.14;22.03;99243.84;6216153;23;19915;-80
2022/11/14 00:43:49;;;;;;;5.40;3.88;;;;;;;26.16;21.87;99240.63;6216292;23;20080;-80
2022/11/14 00:46:16;;;;;;;6.43;4.50;;;;;;;26.15;21.92;99242.66;6216192;23;20353;-80
2022/11/14 00:48:42;;;;;;;5.57;3.67;;;;;;;26.29;21.91;99238.84;6189595;23;19948;-80
2022/11/14 00:51:08;;;;;;;6.15;4.28;;;;;;;25.95;22.03;99231.19;6216545;23;19911;-80
2022/11/14 00:53:34;;;;;;;5.87;3.60;;;;;;;25.38;22.79;99228.13;6215948;23;19912;-80
2022/11/14 00:56:00;;;;;;;5.07;3.47;;;;;;;25.77;22.65;99238.22;6215637;23;20280;-80
2022/11/14 00:58:26;;;;;;;6.47;4.28;;;;;;;26.12;21.95;99232.22;6189514;23;19908;-79
2022/11/14 01:00:53;;;;;;;8.20;4.57;;;;;;;25.90;22.29;99228.84;6216156;23;19908;-80
2022/11/14 01:03:19;;;;;;;7.25;4.25;;;;;;;25.75;22.61;99229.41;6215820;23;19908;-80
2022/11/14 01:05:48;;;;;;;6.03;3.97;;;;;;;25.88;22.20;99227.66;6215660;23;19923;-80
2022/11/14 01:08:16;;;;;;;5.90;4.35;;;;;;;26.30;21.73;99235.59;6216286;23;19982;-80
2022/11/14 01:10:45;;;;;;;6.88;5.10;;;;;;;25.18;22.96;99237.56;6215810;23;19904;-80
2022/11/14 01:13:12;;;;;;;5.47;3.95;;;;;;;24.77;23.79;99226.19;6215494;23;20322;-80
2022/11/14 01:15:44;;;;;;;7.03;4.30;;;;;;;24.97;23.57;99218.03;6216277;23;19912;-80
2022/11/14 01:18:13;;;;;;;7.25;4.70;;;;;;;24.69;23.38;99205.75;6215760;23;20036;-80
2022/11/14 01:20:40;;;;;;;5.47;3.38;;;;;;;25.58;22.56;99210.72;6216180;23;19982;-80
2022/11/14 01:23:07;;;;;;;5.93;4.07;;;;;;;25.02;23.04;99209.94;6215672;23;19908;-80
2022/11/14 01:25:34;;;;;;;6.20;3.92;;;;;;;25.46;22.76;99214.84;6215551;23;19962;-80
2022/11/14 01:28:01;;;;;;;5.80;3.65;;;;;;;25.64;22.52;99207.03;6215696;23;19907;-80
2022/11/14 01:30:27;;;;;;;8.02;5.28;;;;;;;25.87;22.05;99201.53;6215469;23;19912;-80
2022/11/14 01:32:53;;;;;;;4.22;3.35;;;;;;;25.79;22.20;99202.81;6215538;23;19975;-80
2022/11/14 01:35:19;;;;;;;6.20;3.97;;;;;;;26.19;21.72;99194.72;6215336;23;19950;-80
2022/11/14 01:37:45;;;;;;;4.30;3.35;;;;;;;24.57;23.43;99188.59;6215656;23;19908;-80
2022/11/14 01:40:11;;;;;;;6.03;3.60;;;;;;;24.81;23.50;99187.63;6215648;23;19911;-80
2022/11/14 01:42:37;;;;;;;5.78;3.63;;;;;;;24.57;23.75;99197.00;6216009;23;20135;-80
2022/11/14 01:45:41;;;;;;;5.10;3.37;;;;;;;24.61;23.28;99192.16;6215508;23;20222;-80
2022/11/14 01:48:35;;;;;;;6.88;4.28;;;;;;;22.60;26.14;99203.75;6215817;23;20016;-80
2022/11/14 01:51:13;;;;;;;4.80;3.17;;;;;;;23.42;25.28;99199.84;6215448;23;19930;-80
2022/11/14 01:53:41;;;;;;;6.15;3.78;;;;;;;24.04;24.39;99195.25;6215504;23;19908;-80
2022/11/14 01:56:11;;;;;;;5.90;4.03;;;;;;;22.65;25.88;99198.59;6215759;23;19908;-80
2022/11/14 01:58:42;;;;;;;5.40;3.78;;;;;;;22.33;26.40;99189.31;6189041;23;19918;-80
2022/11/14 02:01:08;;;;;;;6.30;4.32;;;;;;;22.80;25.79;99193.03;6215165;23;19912;-80
2022/11/14 02:03:38;;;;;;;5.10;4.07;;;;;;;23.27;25.09;99190.59;6215176;23;20337;-80
2022/11/14 02:06:07;;;;;;;6.20;4.85;;;;;;;24.12;23.82;99182.03;6215513;23;19912;-80
2022/11/14 02:08:35;;;;;;;5.68;3.95;;;;;;;23.73;24.31;99192.56;6215433;23;20050;-80
2022/11/14 02:11:01;;;;;;;6.13;4.53;;;;;;;24.24;23.77;99186.38;6215759;23;20233;-80
2022/11/14 02:13:27;;;;;;;4.75;3.33;;;;;;;24.00;23.76;99188.03;6215494;23;19916;-80
2022/11/14 02:15:54;;;;;;;6.00;4.05;;;;;;;22.05;26.34;99196.78;6215328;23;20009;-80
2022/11/14 02:18:20;;;;;;;5.00;3.25;;;;;;;22.65;25.88;99189.41;6215653;23;19918;-80
2022/11/14 02:20:46;;;;;;;4.72;3.15;;;;;;;23.73;24.43;99192.56;6215174;23;19923;-80
2022/11/14 02:23:12;;;;;;;5.57;3.75;;;;;;;24.08;23.98;99180.44;6215339;23;19908;-80
2022/11/14 02:25:39;;;;;;;5.10;3.42;;;;;;;24.59;23.26;99172.13;6215351;23;19919;-80
2022/11/14 02:28:09;;;;;;;3.55;2.58;;;;;;;24.61;23.11;99166.91;6215702;23;19915;-80
2022/11/14 02:30:35;;;;;;;5.72;3.35;;;;;;;24.98;22.66;99166.22;6215323;23;20011;-80
2022/11/14 02:33:01;;;;;;;4.93;3.58;;;;;;;24.71;23.01;99166.81;6215625;23;19908;-80
2022/11/14 02:35:27;;;;;;;4.65;3.42;;;;;;;24.99;22.58;99165.84;6215252;23;19919;-80
2022/11/14 02:37:53;;;;;;;5.05;3.67;;;;;;;25.04;22.52;99156.16;6216933;23;19912;-80
2022/11/14 02:40:19;;;;;;;3.90;2.70;;;;;;;24.73;23.10;99155.97;6217594;23;19931;-80
2022/11/14 02:42:45;;;;;;;5.75;3.47;;;;;;;24.46;23.38;99159.75;6217468;23;19920;-80
2022/11/14 02:45:12;;;;;;;3.53;2.80;;;;;;;24.07;23.78;99157.19;6190408;23;19916;-80
2022/11/14 02:47:38;;;;;;;5.00;3.58;;;;;;;23.49;24.59;99163.38;6217581;23;19916;-80
2022/11/14 02:50:04;;;;;;;5.45;3.67;;;;;;;24.02;24.08;99154.78;6217718;23;20249;-80
2022/11/14 02:52:30;;;;;;;7.32;4.40;;;;;;;24.69;23.22;99149.56;6217320;23;20449;-80
2022/11/14 02:54:56;;;;;;;4.25;3.42;;;;;;;24.15;23.64;99150.34;6216761;23;20241;-80
2022/11/14 02:57:22;;;;;;;4.82;3.15;;;;;;;23.09;25.19;99153.41;6217257;23;20333;-80
2022/11/14 02:59:48;;;;;;;4.55;3.22;;;;;;;23.19;25.14;99154.59;6216988;23;19947;-80
2022/11/14 03:02:14;;;;;;;6.90;4.03;;;;;;;20.73;28.75;99157.97;6217199;23;19915;-80
2022/11/14 03:04:40;;;;;;;5.45;3.58;;;;;;;20.70;29.04;99155.94;6216866;23;19916;-80
2022/11/14 03:07:06;;;;;;;4.22;3.17;;;;;;;21.04;28.54;99151.88;6190500;23;19919;-80
2022/11/14 03:09:32;;;;;;;6.75;4.47;;;;;;;19.67;30.82;99151.22;6216938;23;19915;-80
2022/11/14 03:11:58;;;;;;;4.65;3.05;;;;;;;20.24;29.98;99149.13;6216604;23;20325;-80
2022/11/14 03:14:24;;;;;;;4.70;3.05;;;;;;;21.63;28.07;99149.84;6217609;23;19908;-80
2022/11/14 03:16:53;;;;;;;4.55;3.40;;;;;;;23.16;25.60;99147.78;6217428;23;20298;-80
2022/11/14 03:19:19;;;;;;;6.38;3.92;;;;;;;23.75;24.89;99148.09;6217490;23;19912;-80
2022/11/14 03:21:45;;;;;;;4.18;3.13;;;;;;;24.14;24.06;99145.13;6216950;23;19912;-80
2022/11/14 03:24:11;;;;;;;4.35;3.08;;;;;;;24.31;24.11;99152.66;6216988;23;19916;-80
2022/11/14 03:26:37;;;;;;;7.18;4.40;;;;;;;22.61;26.01;99155.78;6216762;23;20435;-80
2022/11/14 03:29:04;;;;;;;5.65;3.45;;;;;;;20.96;28.69;99150.19;6189955;23;19935;-80
2022/11/14 03:31:30;;;;;;;5.38;3.47;;;;;;;20.68;29.41;99153.53;6216996;23;19912;-80
2022/11/14 03:33:56;;;;;;;6.80;4.10;;;;;;;22.74;26.34;99147.81;6216829;23;20011;-80
2022/11/14 03:36:22;;;;;;;6.72;3.72;;;;;;;23.52;25.34;99156.16;6216753;23;19915;-80
2022/11/14 03:38:48;;;;;;;6.13;3.50;;;;;;;23.84;24.86;99151.25;6216789;23;19912;-80
2022/11/14 03:41:14;;;;;;;5.93;4.00;;;;;;;23.76;24.97;99152.47;6216635;23;20238;-80
2022/11/14 03:43:40;;;;;;;7.90;4.90;;;;;;;24.69;23.23;99148.78;6216488;23;20326;-80
2022/11/14 03:46:06;;;;;;;6.43;4.50;;;;;;;25.53;22.08;99138.84;6216466;23;19986;-80
2022/11/14 03:48:32;;;;;;;7.63;5.03;;;;;;;26.04;21.38;99135.78;6216543;23;19931;-80
2022/11/14 03:50:58;;;;;;;6.93;4.57;;;;;;;26.46;20.68;99133.63;6216794;23;20313;-80
2022/11/14 03:53:25;;;;;;;7.57;4.67;;;;;;;26.43;20.53;99135.28;6214813;23;19916;-79
2022/11/14 03:55:51;;;;;;;6.53;4.57;;;;;;;26.02;21.08;99131.81;6214933;23;20234;-79
2022/11/14 03:58:17;;;;;;;6.28;4.32;;;;;;;26.15;20.75;99134.88;6216653;23;19912;-79
2022/11/14 04:00:43;;;;;;;7.23;4.70;;;;;;;24.69;22.30;99134.75;6216609;23;19962;-79
2022/11/14 04:03:09;;;;;;;5.55;4.40;;;;;;;24.67;22.50;99134.34;6216277;23;19916;-79
2022/11/14 04:05:35;;;;;;;7.82;5.28;;;;;;;25.06;22.39;99129.25;6216344;23;19916;-79
2022/11/14 04:08:04;;;;;;;7.18;4.65;;;;;;;25.70;21.52;99128.56;6216414;23;19912;-79
2022/11/14 04:10:30;;;;;;;6.95;4.72;;;;;;;26.24;20.98;99124.69;6216299;23;19911;-79
2022/11/14 04:12:56;;;;;;;7.07;4.07;;;;;;;26.54;20.61;99121.00;6216276;23;20257;-79
2022/11/14 04:15:22;;;;;;;7.78;4.50;;;;;;;26.83;20.25;99118.59;6216348;23;19940;-79
2022/11/14 04:17:48;;;;;;;6.30;4.68;;;;;;;26.77;20.22;99120.31;6216535;23;19919;-79
2022/11/14 04:20:15;;;;;;;7.22;4.90;;;;;;;26.84;19.95;99117.38;6216072;23;20003;-79
2022/11/14 04:22:41;;;;;;;6.55;4.45;;;;;;;26.90;19.88;99116.44;6216462;23;20040;-79
2022/11/14 04:25:08;;;;;;;7.07;4.78;;;;;;;26.96;19.82;99123.19;6215825;23;19919;-79
2022/11/14 04:27:34;;;;;;;5.13;3.78;;;;;;;27.10;19.63;99116.50;6216470;23;20342;-79
2022/11/14 04:30:01;;;;;;;7.30;5.38;;;;;;;26.87;19.74;99122.13;6216400;23;19912;-79
2022/11/14 04:32:27;;;;;;;7.22;4.50;;;;;;;26.96;19.78;99130.81;6216675;23;19927;-79
2022/11/14 04:34:53;;;;;;;6.60;4.20;;;;;;;27.03;19.48;99122.25;6216018;23;19938;-79
2022/11/14 04:37:19;;;;;;;6.47;4.18;;;;;;;26.91;19.30;99118.03;6216003;23;20029;-79
2022/11/14 04:39:45;;;;;;;6.50;4.75;;;;;;;26.56;19.66;99115.75;6215892;23;19978;-80
2022/11/14 04:42:11;;;;;;;7.18;4.75;;;;;;;26.46;20.08;99119.56;6216314;23;19955;-79
2022/11/14 04:44:37;;;;;;;6.20;4.20;;;;;;;26.61;19.83;99116.06;6215937;23;19907;-79
2022/11/14 04:47:03;;;;;;;5.90;4.40;;;;;;;26.24;20.25;99109.81;6216053;23;20241;-79
2022/11/14 04:49:29;;;;;;;6.63;4.75;;;;;;;24.79;21.74;99107.78;6216238;23;19912;-80
2022/11/14 04:51:55;;;;;;;6.55;4.72;;;;;;;23.89;23.16;99109.56;6216180;23;20293;-79
2022/11/14 04:54:21;;;;;;;8.35;5.13;;;;;;;23.38;23.69;99109.34;6215308;23;20223;-80
2022/11/14 04:56:48;;;;;;;5.53;3.92;;;;;;;23.11;24.41;99106.16;6216256;23;19912;-80
2022/11/14 04:59:14;;;;;;;5.95;4.40;;;;;;;24.05;23.41;99104.25;6215910;23;19974;-79
2022/11/14 05:01:40;;;;;;;8.77;5.30;;;;;;;24.01;22.98;99102.69;6216085;23;20297;-79
2022/11/14 05:04:06;;;;;;;7.03;4.85;;;;;;;23.47;23.76;99097.72;6215710;23;19920;-80
2022/11/14 05:06:32;;;;;;;6.90;4.93;;;;;;;23.56;23.81;99096.06;6215937;23;19943;-79
2022/11/14 05:08:58;;;;;;;8.05;5.75;;;;;;;22.76;24.69;99095.00;6215350;23;20355;-79
2022/11/14 05:11:24;;;;;;;8.27;5.32;;;;;;;22.83;24.58;99094.19;6189080;23;19908;-79
2022/11/14 05:13:50;;;;;;;8.93;5.60;;;;;;;23.47;23.82;99092.09;6215843;23;20293;-79
2022/11/14 05:16:16;;;;;;;8.48;5.20;;;;;;;24.39;22.76;99084.81;6215724;23;19919;-79
2022/11/14 05:18:42;;;;;;;7.10;4.85;;;;;;;24.93;22.07;99083.19;6215950;23;19911;-79
2022/11/14 05:21:13;;;;;;;6.57;4.13;;;;;;;25.53;21.44;99088.22;6215820;23;19923;-79
2022/11/14 05:23:39;;;;;;;;;;;;;;;25.89;20.86;99092.16;6216024;23;19978;-80
2022/11/14 05:26:07;;;;;;;5.43;4.38;;;;;;;25.25;21.58;99097.72;6215552;23;20352;-79
2022/11/14 05:28:33;;;;;;;7.35;5.13;;;;;;;25.43;21.71;99077.84;6215821;23;19915;-79
2022/11/14 05:31:16;;;;;;;5.97;4.15;;;;;;;25.84;21.24;99089.00;6215965;23;19904;-79
2022/11/14 05:33:43;;;;;;;6.28;3.97;;;;;;;26.30;20.65;99094.81;6215558;23;20091;-79
2022/11/14 05:36:11;;;;;;;5.53;3.53;;;;;;;26.60;20.19;99091.16;6216048;23;19908;-80
2022/11/14 05:38:38;;;;;;;6.07;4.03;;;;;;;26.80;20.01;99089.22;6215496;23;20016;-79
2022/11/14 05:41:22;;;;;;;7.32;4.28;;;;;;;26.92;19.76;99101.91;6216006;23;20245;-79
2022/11/14 05:43:48;;;;;;;5.38;3.72;;;;;;;26.96;19.49;99088.56;6215459;23;20009;-80
2022/11/14 05:46:15;;;;;;;7.10;4.38;;;;;;;26.83;19.53;99091.19;6215566;23;20306;-79
2022/11/14 05:48:41;;;;;;;7.50;3.75;;;;;;;26.91;19.61;99092.66;6215356;23;19915;-79
2022/11/14 05:51:10;;;;;;;6.53;4.57;;;;;;;27.02;19.50;99089.66;6215702;23;19911;-79
2022/11/14 05:53:36;;;;;;;6.32;4.28;;;;;;;26.80;19.76;99091.25;6215158;23;20306;-79
2022/11/14 05:56:04;;;;;;;6.28;4.25;;;;;;;26.40;20.30;99088.25;6215586;23;19916;-79
2022/11/14 05:58:31;;;;;;;4.85;3.88;;;;;;;26.42;20.25;99090.66;6215624;23;19907;-80
2022/11/14 06:01:09;;;;;;;5.78;3.78;;;;;;;26.29;20.55;99087.63;6215387;23;19915;-79
2022/11/14 06:03:38;;;;;;;6.72;4.20;;;;;;;26.12;20.71;99085.03;6215520;23;20095;-79
2022/11/14 06:06:06;;;;;;;6.17;3.43;;;;;;;25.86;21.02;99087.38;6215308;23;19935;-79
2022/11/14 06:08:33;;;;;;;8.02;4.93;;;;;;;22.76;24.99;99100.59;6215593;23;20438;-79
2022/11/14 06:11:10;;;;;;;6.30;4.35;;;;;;;22.50;25.36;99093.38;6216793;23;20373;-79
2022/11/14 06:13:37;;;;;;;8.77;3.78;;;;;;;23.57;24.13;99091.28;6217618;23;20094;-79
2022/11/14 06:16:06;;;;;;;5.85;4.13;;;;;;;24.19;23.34;99105.41;6217669;23;19908;-79
2022/11/14 06:18:33;;;;;;;6.60;4.07;;;;;;;24.51;22.95;99101.19;6217012;23;19908;-80
2022/11/14 06:21:12;;;;;;;4.28;3.53;;;;;;;24.56;23.04;99089.50;6217187;23;19908;-80
2022/11/14 06:23:38;;;;;;;5.00;3.95;;;;;;;24.23;23.20;99094.94;6217563;23;20013;-80
2022/11/14 06:26:06;;;;;;;8.13;4.80;;;;;;;23.89;23.50;99095.53;6217696;23;20238;-79
2022/11/14 06:28:33;;;;;;;4.80;3.22;;;;;;;22.56;25.35;99104.97;6217638;23;19916;-80
2022/11/14 06:31:01;;;;;;;4.40;3.50;;;;;;;23.39;24.45;99096.94;6217578;23;19954;-79
2022/11/14 06:33:28;;;;;;;7.20;4.50;;;;;;;22.68;25.30;99105.41;6217290;23;20329;-79
2022/11/14 06:36:02;;;;;;;10.10;4.77;;;;;;;22.48;25.58;99109.78;6216810;23;19916;-79
2022/11/14 06:38:31;;;;;;;6.78;4.38;;;;;;;20.19;28.65;99104.81;6217345;23;20036;-79
2022/11/14 06:41:09;;;;;;;5.30;3.35;;;;;;;22.48;25.86;99101.38;6217186;23;19908;-80
2022/11/14 06:43:37;;;;;;;4.13;3.53;;;;;;;23.29;24.48;99097.75;6217576;23;20361;-79
2022/11/14 06:46:05;;;;;;;5.00;3.33;;;;;;;23.19;24.44;99099.38;6217302;23;20338;-80
2022/11/14 06:48:31;;;;;;;10.02;4.05;;;;;;;22.29;25.69;99089.75;6166109;23;20034;-79
2022/11/14 06:50:59;;;;;;;6.07;3.58;;;;;;;19.15;30.50;99099.16;6216884;23;20234;-79
2022/11/14 06:53:27;;;;;;;6.38;3.85;;;;;;;21.40;27.51;99091.44;6217268;23;19912;-80
2022/11/14 06:55:58;;;;;;;6.35;3.83;;;;;;;22.26;26.09;99094.16;6190452;23;19908;-80
2022/11/14 06:58:30;;;;;;;4.70;3.40;;;;;;;23.70;24.14;99086.81;6217360;23;20063;-80
2022/11/14 07:01:01;;;;;;;4.38;3.33;;;;;;;23.97;23.50;99091.47;6217168;23;19914;-79
2022/11/14 07:03:27;;;;;;;3.88;3.33;;;;;;;24.00;23.75;99087.84;6217364;23;19936;-79
2022/11/14 07:05:56;;;;;;;3.75;2.95;;;;;;;23.02;24.56;99090.97;6216672;23;19920;-80
2022/11/14 07:08:22;;;;;;;5.63;3.65;;;;;;;23.13;24.72;99100.97;6216965;23;19908;-80
2022/11/14 07:10:48;;;;;;;3.33;2.85;;;;;;;23.31;24.58;99100.94;6216892;23;20245;-79
2022/11/14 07:13:14;;;;;;;3.58;2.92;;;;;;;24.35;23.51;99106.50;6217087;23;19912;-79
2022/11/14 07:15:48;;;;;;;5.18;3.60;;;;;;;24.80;22.55;99096.16;6190171;23;19935;-79
2022/11/14 07:18:14;;;;;;;5.82;3.55;;;;;;;24.54;22.78;99096.75;6217237;23;19946;-79
2022/11/14 07:20:40;;;;;;;4.95;3.22;;;;;;;24.77;22.27;99096.19;6216632;23;19908;-79
2022/11/14 07:23:06;;;;;;;4.57;3.15;;;;;;;24.98;22.03;99102.41;6216477;23;20215;-79
2022/11/14 07:25:32;;;;;;;4.45;2.85;;;;;;;25.03;21.89;99096.34;6216585;23;20322;-80
2022/11/14 07:27:58;;;;;;;4.28;2.67;;;;;;;25.54;22.00;99097.44;6216957;23;19935;-79
2022/11/14 07:30:24;;;;;;;3.55;2.67;;;;;;;25.83;21.32;99098.69;6216871;23;19916;-79
2022/11/14 07:32:59;;;;;;;4.07;2.75;;;;;;;26.03;21.33;99096.81;6216988;23;19912;-79
2022/11/14 07:35:25;;;;;;;3.05;2.55;;;;;;;25.38;21.78;99095.19;6217096;23;20020;-80
2022/11/14 07:37:52;;;;;;;2.50;2.22;;;;;;;23.81;23.40;99098.75;6216842;23;20256;-79
2022/11/14 07:40:18;;;;;;;3.75;2.63;;;;;;;24.29;23.01;99094.13;6216815;23;19912;-80
2022/11/14 07:42:44;;;;;;;4.05;2.85;;;;;;;23.85;23.62;99097.53;6216459;23;20292;-80
2022/11/14 07:45:11;;;;;;;3.58;2.88;;;;;;;24.34;23.14;99095.69;6216658;23;19912;-79
2022/11/14 07:47:37;;;;;;;4.28;3.25;;;;;;;24.43;23.23;99085.63;6215453;23;19915;-79
2022/11/14 07:50:03;;;;;;;4.88;3.60;;;;;;;24.55;22.86;99085.09;6215850;23;19907;-80
2022/11/14 07:52:30;;;;;;;4.60;3.00;;;;;;;21.63;26.68;99100.34;6216792;23;19904;-80
2022/11/14 07:54:56;;;;;;;4.22;2.90;;;;;;;22.68;25.52;99090.63;6216462;23;19982;-80
2022/11/14 07:57:22;;;;;;;5.13;3.50;;;;;;;22.39;25.67;99081.38;6216637;23;19932;-80
2022/11/14 07:59:48;;;;;;;3.75;3.10;;;;;;;22.57;25.49;99082.19;6216173;23;19923;-80
2022/11/14 08:02:14;;;;;;;3.55;3.17;;;;;;;22.42;25.96;99079.78;6216365;23;19912;-80
2022/11/14 08:04:41;;;;;;;4.60;3.63;;;;;;;22.26;26.10;99084.97;6216231;23;19923;-80
2022/11/14 08:07:07;;;;;;;5.75;4.18;;;;;;;22.16;26.61;99075.38;6216404;23;19915;-80
2022/11/14 08:09:33;;;;;;;4.47;2.75;;;;;;;21.96;27.17;99071.34;6216473;23;19950;-80
2022/11/14 08:11:59;;;;;;;4.05;2.85;;;;;;;22.34;26.87;99061.38;6190157;23;20231;-80
2022/11/14 08:14:26;;;;;;;3.83;2.67;;;;;;;22.02;26.81;99064.16;6216293;23;19919;-80
2022/11/14 08:16:52;;;;;;;4.90;3.90;;;;;;;22.35;25.93;99063.00;6216212;23;19908;-79
2022/11/14 08:19:18;;;;;;;3.35;2.90;;;;;;;21.68;27.28;99062.84;6216754;23;19912;-80
2022/11/14 08:21:44;;;;;;;3.97;3.33;;;;;;;22.93;26.37;99057.00;6189680;23;20343;-80
2022/11/14 08:24:10;;;;;;;4.32;3.20;;;;;;;24.22;24.67;99048.47;6216147;23;19918;-80
2022/11/14 08:26:36;;;;;;;4.93;3.75;;;;;;;25.24;23.38;99042.72;6216633;23;19908;-80
2022/11/14 08:29:02;;;;;;;4.78;3.75;;;;;;;25.60;22.14;99045.16;6216372;23;20365;-80
2022/11/14 08:31:29;;;;;;;4.53;3.22;;;;;;;25.68;22.12;99044.63;6216128;23;19994;-80
2022/11/14 08:33:55;;;;;;;3.80;3.00;;;;;;;25.86;22.13;99047.19;6215167;23;19916;-80
2022/11/14 08:36:21;;;;;;;3.60;3.00;;;;;;;25.38;22.53;99044.56;6216582;23;19915;-80
2022/11/14 08:38:47;;;;;;;3.92;2.85;;;;;;;24.10;24.03;99052.56;6216507;23;19915;-80
2022/11/14 08:41:13;;;;;;;4.78;3.63;;;;;;;24.66;23.33;99040.91;6216265;23;19912;-80
2022/11/14 08:43:39;;;;;;;5.03;3.60;;;;;;;25.62;22.86;99037.88;6216535;23;19946;-80
2022/11/14 08:46:05;;;;;;;4.45;3.72;;;;;;;25.88;21.88;99031.47;6216017;23;19908;-80
2022/11/14 08:48:31;;;;;;;4.78;3.33;;;;;;;25.91;22.48;99041.88;6215728;23;20333;-80
2022/11/14 08:51:02;;;;;;;4.95;3.58;;;;;;;26.02;22.39;99036.91;6215908;23;19991;-80
2022/11/14 08:53:29;;;;;;;4.93;3.65;;;;;;;25.00;22.85;99048.59;6215860;23;19916;-80
2022/11/14 08:55:55;;;;;;;4.07;3.03;;;;;;;25.72;22.02;99036.16;6215965;23;19915;-80
2022/11/14 08:58:21;;;;;;;3.92;3.13;;;;;;;25.49;22.64;99036.03;6215868;23;20442;-80
2022/11/14 09:00:47;;;;;;;5.43;3.30;;;;;;;25.85;22.21;99032.34;6215804;23;20043;-80
2022/11/14 09:03:14;;;;;;;4.45;2.97;;;;;;;26.40;21.99;99025.47;6216278;23;19912;-80
2022/11/14 09:05:41;;;;;;;2.92;2.63;;;;;;;26.49;21.66;99039.84;6215765;23;19922;-80
2022/11/14 09:08:07;;;;;;;4.13;3.38;;;;;;;26.53;21.67;99035.75;6215642;23;20291;-80
2022/11/14 09:10:33;;;;;;;4.85;3.58;;;;;;;26.59;21.50;99036.84;6215931;23;20336;-80
2022/11/14 09:13:00;;;;;;;5.53;3.55;;;;;;;25.66;22.51;99040.63;6215840;23;19912;-80
2022/11/14 09:15:28;;;;;;;3.95;2.95;;;;;;;25.61;22.90;99027.84;6215628;23;19918;-80
2022/11/14 09:17:57;;;;;;;4.30;3.27;;;;;;;25.79;22.59;99030.44;6215952;23;19915;-80
2022/11/14 09:20:24;;;;;;;5.53;3.92;;;;;;;26.02;22.36;99030.50;6215812;23;20015;-80
2022/11/14 09:22:53;;;;;;;4.32;3.75;;;;;;;26.03;22.40;99026.44;6215760;23;19912;-80
2022/11/14 09:25:20;;;;;;;4.50;3.70;;;;;;;26.34;22.26;99039.28;6215226;23;19907;-80
2022/11/14 09:27:47;;;;;;;5.63;3.83;;;;;;;26.44;22.09;99040.31;6215783;23;19942;-80
2022/11/14 09:30:14;;;;;;;5.47;3.83;;;;;;;26.58;21.41;99040.88;6188868;23;20019;-80
2022/11/14 09:32:40;;;;;;;4.35;3.30;;;;;;;27.04;20.89;99036.47;6215664;23;20005;-80
2022/11/14 09:35:06;;;;;;;4.35;3.28;;;;;;;27.40;21.01;99031.75;6215525;23;19916;-80
2022/11/14 09:37:32;;;;;;;4.03;3.45;;;;;;;27.50;20.80;99039.19;6215670;23;20245;-80
2022/11/14 09:39:58;;;;;;;4.20;3.53;;;;;;;26.57;21.70;99022.38;6189218;23;19962;-80
2022/11/14 09:42:59;;;;;;;5.72;3.83;;;;;;;26.71;21.76;99016.50;6214489;23;19908;-80
2022/11/14 09:45:26;;;;;;;5.03;3.80;;;;;;;26.29;21.85;99011.59;6167530;23;20063;-80
2022/11/14 09:48:06;;;;;;;4.10;3.55;;;;;;;25.64;22.59;99020.56;6215474;23;19990;-80
2022/11/14 09:50:42;;;;;;;7.28;4.88;;;;;;;25.49;23.56;99033.22;6188949;23;19960;-80
2022/11/14 09:53:29;;;;;;;6.18;4.35;;;;;;;26.40;22.67;99015.03;6215635;23;20012;-80
2022/11/14 09:55:56;;;;;;;10.57;4.10;;;;;;;27.06;22.18;99008.63;6188412;23;19986;-80
2022/11/14 09:58:22;;;;;;;5.65;4.10;;;;;;;27.12;21.62;99016.16;6215208;23;19912;-80
2022/11/14 10:01:04;;;;;;;5.82;3.90;;;;;;;26.98;21.59;99012.84;6215230;23;19911;-80
2022/11/14 10:04:02;;;;;;;5.25;3.80;;;;;;;26.25;22.68;99008.03;6215975;23;20331;-80
2022/11/14 10:06:46;;;;;;;5.18;4.20;;;;;;;26.30;22.95;99007.53;6188559;23;20051;-80
2022/11/14 10:09:44;;;;;;;5.72;3.85;;;;;;;26.42;23.20;99001.31;6215766;23;20402;-82
2022/11/14 10:12:21;;;;;;;6.50;4.72;;;;;;;26.71;22.07;98998.81;6215581;23;20035;-80
2022/11/14 10:15:22;;;;;;;4.85;4.22;;;;;;;26.94;22.14;99006.44;6215547;23;20095;-80
2022/11/14 10:18:16;;;;;;;4.45;3.42;;;;;;;27.28;21.79;99002.13;6215488;23;20083;-80
2022/11/14 10:20:46;;;;;;;5.72;3.85;;;;;;;27.31;22.04;98992.00;6215688;23;19915;-80
2022/11/14 10:23:44;;;;;;;6.28;4.05;;;;;;;27.16;22.00;98993.53;6215373;23;20340;-80
2022/11/14 10:26:47;;;;;;;5.15;3.85;;;;;;;26.56;22.58;98983.38;6215213;23;20020;-80
2022/11/14 10:29:46;;;;;;;7.90;4.43;;;;;;;25.36;23.73;98977.53;6201274;23;20024;-80
2022/11/14 10:32:40;;;;;;;6.38;4.50;;;;;;;26.29;23.09;98971.38;6215287;23;20472;-80
2022/11/14 10:35:15;;;;;;;5.45;4.00;;;;;;;25.93;23.32;98971.91;6215795;23;20013;-80
2022/11/14 10:38:00;;;;;;;6.82;4.72;;;;;;;24.87;24.80;98971.69;6215468;23;20512;-80
2022/11/14 10:41:05;;;;;;;6.13;4.00;;;;;;;25.95;23.68;98963.84;6215118;23;19915;-80
2022/11/14 10:43:38;;;;;;;6.72;4.40;;;;;;;25.65;24.04;98958.25;6123886;23;20009;-80
2022/11/14 10:46:21;;;;;;;6.63;4.88;;;;;;;26.13;23.26;98948.72;6200816;23;19915;-80
2022/11/14 10:48:49;;;;;;;6.57;4.50;;;;;;;26.49;22.79;98949.72;6215309;23;20083;-80
2022/11/14 10:51:30;;;;;;;6.88;4.53;;;;;;;26.39;22.84;98943.06;6215441;23;20020;-80
2022/11/14 10:54:26;;;;;;;6.50;5.00;;;;;;;26.19;23.82;98947.00;6214928;23;20005;-81
2022/11/14 10:56:53;;;;;;;7.60;5.60;;;;;;;26.18;22.96;98942.63;6210919;23;19923;-80
2022/11/14 10:59:20;;;;;;;6.10;4.95;;;;;;;25.85;23.65;98931.06;6217104;23;20012;-80
2022/11/14 11:01:57;;;;;;;6.03;4.45;;;;;;;25.00;25.29;98937.00;6217173;23;19908;-80
2022/11/14 11:04:32;;;;;;;7.55;5.45;;;;;;;25.87;24.18;98937.03;6216934;23;20461;-81
2022/11/14 11:12:51;;;;;;;8.23;4.55;;;;;;;26.78;22.73;98930.28;6217125;23;20082;-80
2022/11/14 11:15:30;;;;;;;7.25;4.85;;;;;;;26.92;22.72;98922.34;6215838;23;19914;-80
2022/11/14 11:18:02;;;;;;;6.25;4.93;;;;;;;26.32;23.25;98928.28;6217140;23;19907;-80
2022/11/14 11:20:37;;;;;;;7.10;5.10;;;;;;;25.61;24.44;98931.41;6216700;23;20004;-81
2022/11/14 11:23:09;;;;;;;6.83;4.83;;;;;;;24.84;25.40;98922.75;6216800;23;20009;-80
2022/11/14 11:25:38;;;;;;;7.95;5.13;;;;;;;24.85;25.39;98918.75;6216869;23;20013;-80
2022/11/14 11:28:16;;;;;;;7.15;4.75;;;;;;;23.92;26.79;98922.81;6216982;23;19908;-80
2022/11/14 11:30:57;;;;;;;7.68;5.68;;;;;;;21.49;29.95;98926.25;6216464;23;20004;-80
2022/11/14 11:33:25;;;;;;;;;;;;;;;20.29;31.71;98932.06;6217580;23;20090;-80
2022/11/14 11:35:58;;;;;;;10.43;6.95;;;;;;;19.84;33.14;98924.09;6216689;23;19929;-80
2022/11/14 11:38:27;;;;;;;8.25;5.30;;;;;;;21.09;30.97;98916.97;6216597;23;20021;-80
2022/11/14 11:41:21;;;;;;;10.27;6.20;;;;;;;21.44;30.78;98918.25;6216190;23;19958;-80
2022/11/14 11:43:50;;;;;;;11.38;7.63;;;;;;;20.91;31.47;98918.84;6203444;23;20843;-80
2022/11/14 11:46:22;;;;;;;7.32;5.45;;;;;;;23.11;27.55;98923.28;6216815;23;19915;-80
2022/11/14 11:49:01;;;;;;;7.78;5.55;;;;;;;24.60;25.71;98910.56;6217575;23;19962;-79
2022/11/14 11:51:27;;;;;;;7.53;5.23;;;;;;;24.55;25.67;98910.25;6216809;23;19908;-79